createdAt,value
2018-05-16T00:00:55.809Z,8.52
2018-05-16T00:04:05.669Z,10.15
2018-05-16T00:07:15.459Z,10.02
2018-05-16T00:10:25.317Z,13.55
2018-05-16T00:13:35.252Z,10.85
2018-05-16T00:16:45.194Z,10.00
2018-05-16T00:19:55.066Z,9.65
2018-05-16T00:23:04.925Z,11.23
2018-05-16T00:26:15.855Z,10.60
2018-05-16T00:29:25.977Z,8.02
2018-05-16T00:32:36.657Z,12.98
2018-05-16T00:35:46.621Z,12.70
2018-05-16T00:38:57.157Z,11.80
2018-05-16T00:42:07.354Z,12.80
2018-05-16T00:45:18.828Z,14.73
2018-05-16T00:48:29.385Z,17.70
2018-05-16T00:51:39.833Z,17.15
2018-05-16T00:54:50.254Z,15.73
2018-05-16T00:58:00.811Z,12.43
2018-05-16T01:01:11.297Z,14.82
2018-05-16T01:04:21.543Z,17.35
2018-05-16T01:07:31.663Z,15.23
2018-05-16T01:10:42.385Z,16.42
2018-05-16T01:13:52.620Z,18.02
2018-05-16T01:17:04.057Z,18.55
2018-05-16T01:20:13.900Z,15.23
2018-05-16T01:23:24.095Z,13.88
2018-05-16T01:26:34.747Z,12.10
2018-05-16T01:29:45.630Z,11.68
2018-05-16T01:32:55.939Z,17.37
2018-05-16T01:36:06.283Z,11.23
2018-05-16T01:39:16.860Z,14.60
2018-05-16T01:42:27.008Z,16.52
2018-05-16T01:45:37.461Z,12.80
2018-05-16T01:48:59.361Z,16.65
2018-05-16T01:52:10.464Z,17.70
2018-05-16T01:55:20.743Z,15.68
2018-05-16T01:58:30.775Z,15.52
2018-05-16T02:01:42.327Z,17.77
2018-05-16T02:04:52.643Z,15.32
2018-05-16T02:08:02.640Z,14.98
2018-05-16T02:11:12.765Z,21.25
2018-05-16T02:14:22.878Z,19.40
2018-05-16T02:17:32.726Z,19.83
2018-05-16T02:20:42.553Z,16.10
2018-05-16T02:23:53.236Z,18.37
2018-05-16T02:27:03.100Z,17.85
2018-05-16T02:30:13.414Z,17.77
2018-05-16T02:33:23.246Z,18.33
2018-05-16T02:36:33.480Z,14.52
2018-05-16T02:39:43.349Z,15.23
2018-05-16T02:42:53.987Z,20.70
2018-05-16T02:46:04.306Z,19.27
2018-05-16T02:49:14.472Z,21.60
2018-05-16T02:52:24.824Z,19.75
2018-05-16T02:55:34.836Z,18.30
2018-05-16T02:58:45.561Z,21.87
2018-05-16T03:01:55.760Z,18.92
2018-05-16T03:05:05.610Z,25.15
2018-05-16T03:08:15.426Z,17.70
2018-05-16T03:11:26.744Z,23.77
2018-05-16T03:14:37.039Z,16.80
2018-05-16T03:17:46.780Z,19.75
2018-05-16T03:20:56.569Z,19.77
2018-05-16T03:24:07.133Z,22.40
2018-05-16T03:27:17.434Z,23.30
2018-05-16T03:30:27.253Z,24.17
2018-05-16T03:33:37.920Z,16.98
2018-05-16T03:36:47.761Z,21.33
2018-05-16T03:39:57.654Z,21.00
2018-05-16T03:43:08.326Z,19.05
2018-05-16T03:46:18.598Z,24.45
2018-05-16T03:49:28.658Z,22.65
2018-05-16T03:52:39.750Z,24.80
2018-05-16T03:55:49.970Z,23.92
2018-05-16T03:59:11.009Z,23.10
2018-05-16T04:02:32.700Z,21.05
2018-05-16T04:05:42.486Z,19.77
2018-05-16T04:08:52.663Z,19.15
2018-05-16T04:12:03.994Z,22.10
2018-05-16T04:15:14.701Z,23.65
2018-05-16T04:18:24.380Z,22.58
2018-05-16T04:21:34.314Z,25.92
2018-05-16T04:24:44.317Z,21.50
2018-05-16T04:27:54.269Z,27.77
2018-05-16T04:31:04.737Z,20.90
2018-05-16T04:34:15.702Z,13.98
2018-05-16T04:37:26.195Z,19.75
2018-05-16T04:40:35.956Z,28.92
2018-05-16T04:43:45.897Z,27.58
2018-05-16T04:46:56.155Z,23.10
2018-05-16T04:50:07.237Z,21.27
2018-05-16T04:53:17.124Z,25.33
2018-05-16T04:56:27.268Z,20.02
2018-05-16T04:59:37.314Z,25.65
2018-05-16T05:02:47.662Z,23.87
2018-05-16T05:05:59.127Z,24.87
2018-05-16T05:09:09.387Z,25.40
2018-05-16T05:12:19.913Z,20.67
2018-05-16T05:15:30.129Z,19.40
2018-05-16T05:18:40.157Z,24.17
2018-05-16T05:21:50.372Z,28.02
2018-05-16T05:25:00.876Z,25.65
2018-05-16T05:28:10.892Z,18.62
2018-05-16T05:31:20.710Z,24.17
2018-05-16T05:34:30.921Z,24.20
2018-05-16T05:37:42.281Z,26.30
2018-05-16T05:40:52.921Z,23.85
2018-05-16T05:44:02.791Z,26.10
2018-05-16T05:47:13.737Z,21.62
2018-05-16T05:50:24.207Z,29.80
2018-05-16T05:53:35.385Z,26.67
2018-05-16T05:56:45.666Z,32.00
2018-05-16T05:59:56.466Z,31.58
2018-05-16T06:03:07.175Z,27.33
2018-05-16T06:06:17.101Z,31.08
2018-05-16T06:09:27.700Z,36.42
2018-05-16T06:12:38.413Z,32.13
2018-05-16T06:15:48.325Z,34.25
2018-05-16T06:18:58.250Z,28.87
2018-05-16T06:22:08.956Z,35.50
2018-05-16T06:25:18.848Z,38.97
2018-05-16T06:28:28.889Z,32.95
2018-05-16T06:31:39.116Z,39.53
2018-05-16T06:34:49.360Z,30.37
2018-05-16T06:38:00.063Z,37.90
2018-05-16T06:41:09.854Z,33.88
2018-05-16T06:44:20.589Z,30.42
2018-05-16T06:47:30.673Z,37.83
2018-05-16T06:50:42.640Z,25.88
2018-05-16T06:53:52.781Z,30.65
2018-05-16T06:57:03.294Z,22.58
2018-05-16T07:00:13.139Z,31.15
2018-05-16T07:03:23.931Z,20.92
2018-05-16T07:06:34.763Z,27.58
2018-05-16T07:09:46.011Z,21.85
2018-05-16T07:12:56.223Z,23.48
2018-05-16T07:16:07.571Z,21.50
2018-05-16T07:19:18.514Z,29.65
2018-05-16T07:22:28.635Z,29.05
2018-05-16T07:25:40.162Z,23.83
2018-05-16T07:28:50.351Z,26.25
2018-05-16T07:32:01.027Z,23.95
2018-05-16T07:35:11.004Z,25.83
2018-05-16T07:38:21.830Z,26.70
2018-05-16T07:41:31.950Z,26.67
2018-05-16T07:44:41.936Z,25.83
2018-05-16T07:47:51.936Z,22.15
2018-05-16T07:51:02.450Z,26.98
2018-05-16T07:54:12.788Z,28.58
2018-05-16T07:57:23.513Z,31.98
2018-05-16T08:00:33.728Z,27.83
2018-05-16T08:03:44.599Z,32.40
2018-05-16T08:06:54.888Z,34.72
2018-05-16T08:10:04.689Z,37.25
2018-05-16T08:13:14.554Z,36.63
2018-05-16T08:16:25.449Z,37.17
2018-05-16T08:19:35.850Z,34.25
2018-05-16T08:22:45.612Z,36.40
2018-05-16T08:25:55.632Z,37.85
2018-05-16T08:29:06.046Z,32.95
2018-05-16T08:32:16.085Z,39.90
2018-05-16T08:35:26.789Z,35.80
2018-05-16T08:38:37.673Z,34.08
2018-05-16T08:41:48.035Z,27.33
2018-05-16T08:44:58.014Z,34.95
2018-05-16T08:48:08.099Z,37.28
2018-05-16T08:51:18.612Z,33.25
2018-05-16T08:54:29.999Z,36.53
2018-05-16T08:57:40.194Z,39.28
2018-05-16T09:00:50.575Z,43.25
2018-05-16T09:04:01.585Z,34.03
2018-05-16T09:07:12.021Z,41.78
2018-05-16T09:10:22.631Z,35.67
2018-05-16T09:13:32.507Z,40.92
2018-05-16T09:16:42.790Z,38.00
2018-05-16T09:19:53.445Z,36.15
2018-05-16T09:23:04.945Z,39.85
2018-05-16T09:26:14.864Z,36.42
2018-05-16T09:29:26.334Z,42.13
2018-05-16T09:32:36.501Z,32.67
2018-05-16T09:35:47.252Z,26.55
2018-05-16T09:38:56.988Z,28.90
2018-05-16T09:42:06.900Z,25.55
2018-05-16T09:45:17.551Z,27.37
2018-05-16T09:48:27.818Z,26.70
2018-05-16T09:51:38.389Z,27.90
2018-05-16T09:54:48.873Z,32.28
2018-05-16T09:57:58.697Z,33.70
2018-05-16T10:01:08.590Z,28.70
2018-05-16T10:04:18.339Z,32.70
2018-05-16T10:07:28.469Z,30.08
2018-05-16T10:10:38.432Z,31.12
2018-05-16T10:13:48.519Z,30.95
2018-05-16T10:16:58.478Z,29.27
2018-05-16T10:20:08.404Z,28.83
2018-05-16T10:23:18.573Z,29.50
2018-05-16T10:26:28.561Z,33.65
2018-05-16T10:29:39.185Z,23.52
2018-05-16T10:32:49.212Z,34.22
2018-05-16T10:35:58.945Z,34.45
2018-05-16T10:39:09.125Z,36.35
2018-05-16T10:42:18.960Z,41.28
2018-05-16T10:45:29.603Z,39.13
2018-05-16T10:48:39.579Z,31.23
2018-05-16T10:51:49.757Z,42.55
2018-05-16T10:54:59.558Z,42.33
2018-05-16T10:58:09.596Z,36.35
2018-05-16T11:01:20.396Z,36.67
2018-05-16T11:04:30.976Z,40.38
2018-05-16T11:07:40.948Z,27.90
2018-05-16T11:10:50.858Z,32.75
2018-05-16T11:14:00.695Z,35.67
2018-05-16T11:17:10.689Z,29.35
2018-05-16T11:20:20.725Z,40.53
2018-05-16T11:23:30.867Z,45.90
2018-05-16T11:26:41.050Z,35.67
2018-05-16T11:29:51.149Z,34.22
2018-05-16T11:33:01.457Z,44.72
2018-05-16T11:36:11.472Z,39.08
2018-05-16T11:39:21.449Z,42.00
2018-05-16T11:42:31.257Z,31.65
2018-05-16T11:45:42.870Z,30.75
2018-05-16T11:48:53.264Z,30.25
2018-05-16T11:52:05.183Z,42.03
2018-05-16T11:55:14.997Z,50.80
2018-05-16T11:58:24.960Z,31.33
2018-05-16T12:01:35.902Z,23.17
2018-05-16T12:04:45.939Z,42.45
2018-05-16T12:07:55.826Z,36.58
2018-05-16T12:11:06.573Z,40.15
2018-05-16T12:14:16.577Z,37.40
2018-05-16T12:17:26.397Z,32.65
2018-05-16T12:20:38.024Z,45.50
2018-05-16T12:23:48.189Z,41.13
2018-05-16T12:26:58.482Z,35.63
2018-05-16T12:30:08.327Z,40.30
2018-05-16T12:33:19.093Z,39.63
2018-05-16T12:36:29.092Z,35.80
2018-05-16T12:39:39.527Z,32.72
2018-05-16T12:43:00.692Z,34.55
2018-05-16T12:46:10.647Z,48.53
2018-05-16T12:49:20.393Z,37.45
2018-05-16T12:52:30.860Z,43.75
2018-05-16T12:55:42.523Z,41.63
2018-05-16T12:58:53.155Z,37.05
2018-05-16T13:02:03.940Z,42.28
2018-05-16T13:05:13.758Z,30.05
2018-05-16T13:08:23.571Z,33.47
2018-05-16T13:11:34.242Z,39.38
2018-05-16T13:14:43.925Z,20.88
2018-05-16T13:17:54.198Z,31.05
2018-05-16T13:21:05.808Z,42.97
2018-05-16T13:24:16.056Z,34.45
2018-05-16T13:27:26.251Z,33.80
2018-05-16T13:30:36.072Z,30.95
2018-05-16T13:33:45.955Z,35.13
2018-05-16T13:36:56.286Z,26.95
2018-05-16T13:40:06.492Z,31.20
2018-05-16T13:43:17.431Z,32.88
2018-05-16T13:46:27.513Z,27.65
2018-05-16T13:49:37.467Z,26.52
2018-05-16T13:52:47.720Z,35.17
2018-05-16T13:55:57.761Z,39.13
2018-05-16T13:59:07.893Z,38.58
2018-05-16T14:02:18.653Z,29.37
2018-05-16T14:05:28.932Z,31.98
2018-05-16T14:08:38.800Z,34.13
2018-05-16T14:11:48.794Z,41.40
2018-05-16T14:14:59.479Z,37.20
2018-05-16T14:18:09.428Z,36.58
2018-05-16T14:21:19.420Z,37.13
2018-05-16T14:24:30.045Z,28.98
2018-05-16T14:27:40.105Z,35.30
2018-05-16T14:30:49.877Z,31.83
2018-05-16T14:33:59.836Z,38.33
2018-05-16T14:37:09.781Z,40.15
2018-05-16T14:40:20.588Z,29.90
2018-05-16T14:43:30.902Z,34.20
2018-05-16T14:46:40.698Z,28.27
2018-05-16T14:49:50.635Z,33.22
2018-05-16T14:53:00.789Z,27.13
2018-05-16T14:56:10.752Z,28.55
2018-05-16T14:59:21.268Z,27.77
2018-05-16T15:02:31.035Z,29.30
2018-05-16T15:05:41.263Z,26.50
2018-05-16T15:08:51.011Z,23.35
2018-05-16T15:12:01.003Z,30.48
2018-05-16T15:15:10.959Z,19.12
2018-05-16T15:18:21.778Z,23.52
2018-05-16T15:21:32.801Z,22.73
2018-05-16T15:24:42.969Z,16.45
2018-05-16T15:27:52.944Z,26.98
2018-05-16T15:31:02.954Z,27.00
2018-05-16T15:34:13.691Z,26.77
2018-05-16T15:37:23.505Z,28.80
2018-05-16T15:40:33.297Z,25.83
2018-05-16T15:43:43.518Z,25.88
2018-05-16T15:46:53.694Z,25.23
2018-05-16T15:50:04.125Z,24.42
2018-05-16T15:53:14.397Z,21.98
2018-05-16T15:56:24.322Z,23.23
2018-05-16T15:59:34.348Z,22.87
2018-05-16T16:02:44.272Z,17.55
2018-05-16T16:05:54.220Z,17.92
2018-05-16T16:09:03.562Z,20.15
2018-05-16T16:12:13.979Z,15.10
2018-05-16T16:15:23.877Z,19.48
2018-05-16T16:18:33.871Z,16.55
2018-05-16T16:21:43.650Z,19.87
2018-05-16T16:24:53.824Z,18.60
2018-05-16T16:28:03.870Z,20.62
2018-05-16T16:31:13.771Z,18.65
2018-05-16T16:34:23.737Z,21.40
2018-05-16T16:37:34.385Z,17.80
2018-05-16T16:40:44.372Z,19.92
2018-05-16T16:43:54.359Z,14.95
2018-05-16T16:47:04.315Z,22.73
2018-05-16T16:50:21.464Z,19.35
2018-05-16T16:53:33.216Z,18.55
2018-05-16T16:56:43.683Z,15.32
2018-05-16T16:59:53.678Z,15.88
2018-05-16T17:03:03.675Z,17.00
2018-05-16T17:06:13.759Z,12.10
2018-05-16T17:09:23.981Z,19.62
2018-05-16T17:12:34.090Z,15.30
2018-05-16T17:15:45.000Z,20.27
2018-05-16T17:18:55.553Z,18.90
2018-05-16T17:22:06.121Z,21.12
2018-05-16T17:25:16.084Z,13.88
2018-05-16T17:28:25.873Z,17.67
2018-05-16T17:31:36.301Z,16.65
2018-05-16T17:34:46.214Z,16.95
2018-05-16T17:37:56.920Z,14.85
2018-05-16T17:41:06.811Z,17.48
2018-05-16T17:44:16.804Z,13.65
2018-05-16T17:47:27.577Z,16.25
2018-05-16T17:50:38.507Z,11.35
2018-05-16T17:53:49.465Z,12.90
2018-05-16T17:57:00.193Z,10.88
2018-05-16T18:00:11.257Z,9.43
2018-05-16T18:03:21.381Z,9.43
2018-05-16T18:06:31.172Z,10.45
2018-05-16T18:09:41.923Z,10.15
2018-05-16T18:13:03.043Z,9.70
2018-05-16T18:16:25.205Z,10.70
2018-05-16T18:19:35.600Z,9.48
2018-05-16T18:22:45.367Z,9.90
2018-05-16T18:25:56.153Z,12.20
2018-05-16T18:29:06.093Z,9.95
2018-05-16T18:32:16.720Z,9.45
2018-05-16T18:35:26.924Z,8.75
2018-05-16T18:38:37.667Z,11.25
2018-05-16T18:41:47.767Z,8.25
2018-05-16T18:44:58.789Z,11.38
2018-05-16T18:48:09.193Z,11.55
2018-05-16T18:51:19.960Z,9.90
2018-05-16T18:54:30.886Z,11.73
2018-05-16T18:57:40.774Z,10.80
2018-05-16T19:00:50.659Z,10.38
2018-05-16T19:04:00.673Z,12.63
2018-05-16T19:07:11.346Z,10.63
2018-05-16T19:10:21.705Z,11.80
2018-05-16T19:13:31.754Z,12.25
2018-05-16T19:16:41.635Z,12.98
2018-05-16T19:19:51.794Z,14.02
2018-05-16T19:23:01.725Z,15.93
2018-05-16T19:26:12.709Z,15.15
2018-05-16T19:29:23.581Z,15.43
2018-05-16T19:32:33.615Z,12.00
2018-05-16T19:35:43.525Z,12.68
2018-05-16T19:38:53.771Z,12.10
2018-05-16T19:42:03.739Z,12.25
2018-05-16T19:45:14.527Z,14.93
2018-05-16T19:48:24.994Z,12.95
2018-05-16T19:51:35.809Z,12.40
2018-05-16T19:54:46.036Z,13.30
2018-05-16T19:57:57.188Z,14.38
2018-05-16T20:01:08.297Z,13.45
2018-05-16T20:04:18.621Z,12.98
2018-05-16T20:07:29.628Z,13.40
2018-05-16T20:10:40.244Z,11.52
2018-05-16T20:13:50.372Z,11.98
2018-05-16T20:17:00.337Z,13.45
2018-05-16T20:20:10.297Z,11.30
2018-05-16T20:23:20.881Z,11.73
2018-05-16T20:26:31.770Z,11.55
2018-05-16T20:29:42.669Z,10.43
2018-05-16T20:32:52.826Z,12.25
2018-05-16T20:36:02.756Z,14.30
2018-05-16T20:39:12.797Z,13.80
2018-05-16T20:42:22.775Z,14.95
2018-05-16T20:45:32.629Z,11.52
2018-05-16T20:48:43.006Z,11.77
2018-05-16T20:51:53.152Z,11.77
2018-05-16T20:55:03.706Z,11.55
2018-05-16T20:58:13.542Z,12.82
2018-05-16T21:01:23.396Z,13.88
2018-05-16T21:04:33.457Z,12.52
2018-05-16T21:07:44.138Z,11.43
2018-05-16T21:10:54.156Z,13.15
2018-05-16T21:14:04.770Z,12.40
2018-05-16T21:17:14.678Z,14.43
2018-05-16T21:20:24.549Z,12.68
2018-05-16T21:23:34.278Z,14.25
2018-05-16T21:26:44.052Z,11.80
2018-05-16T21:29:54.797Z,13.10
2018-05-16T21:33:06.262Z,13.62
2018-05-16T21:36:16.197Z,15.10
2018-05-16T21:39:26.953Z,12.10
2018-05-16T21:42:37.523Z,15.10
2018-05-16T21:45:47.588Z,12.80
2018-05-16T21:48:57.321Z,13.48
2018-05-16T21:52:07.517Z,13.75
2018-05-16T21:55:17.725Z,13.93
2018-05-16T21:58:28.424Z,10.65
2018-05-16T22:01:38.413Z,12.63
2018-05-16T22:04:48.403Z,12.43
2018-05-16T22:07:59.041Z,12.18
2018-05-16T22:11:09.177Z,14.35
2018-05-16T22:14:18.893Z,11.40
2018-05-16T22:17:29.971Z,10.68
2018-05-16T22:20:40.887Z,11.12
2018-05-16T22:23:51.842Z,13.30
2018-05-16T22:27:02.023Z,9.90
2018-05-16T22:30:10.757Z,8.20
2018-05-16T22:33:26.938Z,11.77
2018-05-16T22:36:43.057Z,8.48
2018-05-16T22:39:58.963Z,9.85
2018-05-16T22:43:09.444Z,8.90
2018-05-16T22:46:19.105Z,10.98
2018-05-16T22:49:29.849Z,9.77
2018-05-16T22:52:40.129Z,10.38
2018-05-16T22:55:51.178Z,13.23
2018-05-16T22:59:01.139Z,9.93
2018-05-16T23:02:11.795Z,9.25
2018-05-16T23:05:21.913Z,12.48
2018-05-16T23:08:32.464Z,7.87
2018-05-16T23:11:42.281Z,8.60
2018-05-16T23:14:53.161Z,10.70
2018-05-16T23:18:04.186Z,11.57
2018-05-16T23:21:14.201Z,10.93
2018-05-16T23:24:25.151Z,8.00
2018-05-16T23:27:35.945Z,10.10
2018-05-16T23:30:46.089Z,7.62
2018-05-16T23:33:57.079Z,8.23
2018-05-16T23:37:07.029Z,13.23
2018-05-16T23:40:17.711Z,10.32
2018-05-16T23:43:27.635Z,8.88
2018-05-16T23:46:37.541Z,10.32
2018-05-16T23:49:47.368Z,12.85
2018-05-16T23:52:57.437Z,11.45
2018-05-16T23:56:08.047Z,10.30
2018-05-16T23:59:17.828Z,14.93
